»·PEaware :: N24W KPHX-KTUS

N24W :: KPHX-KTUS

FLIGHT INFORMATION

Flight Status: Arrived
Operator: Privately registered:
United States
More flights under this callsign
Pilot: Drew L. (13237)
Aircraft: PILATUS PC-12 EAGLE
(PC12)
More flights by this aircraft type
Origin: KPHX Phoenix Sky Harbor Intl
United States
Destination: KTUS Tucson Intl
United States
More flights between these airports :: More routes between these airports
Route: TFD4 TFD DINGO5
File this flight plan on PilotEdge
Remarks:
Altitude:
(Current/Filed)
17,000ft
Speed:
(Current/Filed)
455kts
Departed: 11-Apr-18 03:59 PM
Arrived: 11-Apr-18 04:35 PM
Distance/Time
Traveled:
95nm/0:36
Distance/Time
To Go:
Arrived

Flight Plot

Page will automatically refresh every two minutes.

Flight plan parsing failed; only flown route is shown


Map Options




Map Legend


Flown Route
Filed Route
Departure Airport
Arrival Airport
Navaid (VOR, NDB)
Fix

Horizontal Profiles

Position Reports

Time Latitude Longitude Heading Altitude Ground
Speed
11-Apr-18 15:33 33.425770 -112.019526 269 1138ft 0kts
11-Apr-18 15:34 33.425770 -112.019526 270 1138ft 0kts
11-Apr-18 15:35 33.425770 -112.019526 269 1138ft 0kts
11-Apr-18 15:36 33.425770 -112.019526 269 1138ft 0kts
11-Apr-18 15:37 33.425770 -112.019526 269 1138ft 0kts
11-Apr-18 15:38 33.425770 -112.019526 269 1138ft 0kts
11-Apr-18 15:39 33.425770 -112.019526 269 1138ft 0kts
11-Apr-18 15:40 33.425770 -112.019526 269 1138ft 0kts
11-Apr-18 15:41 33.425770 -112.019526 269 1138ft 0kts
11-Apr-18 15:42 33.425770 -112.019526 269 1138ft 0kts
11-Apr-18 15:43 33.425770 -112.019526 269 1138ft 0kts
11-Apr-18 15:44 33.425770 -112.019526 269 1138ft 0kts
11-Apr-18 15:45 33.425770 -112.019526 269 1138ft 0kts
11-Apr-18 15:46 33.425770 -112.019526 269 1138ft 0kts
11-Apr-18 15:47 33.425770 -112.019526 269 1138ft 0kts
11-Apr-18 15:48 33.425770 -112.019526 269 1138ft 0kts
11-Apr-18 15:49 33.425770 -112.019526 269 1138ft 0kts
11-Apr-18 15:50 33.425770 -112.019526 269 1138ft 0kts
11-Apr-18 15:51 33.426121 -112.020215 328 1138ft 12kts
11-Apr-18 15:52 33.427086 -112.021134 354 1138ft 0kts
11-Apr-18 15:53 33.427086 -112.021134 354 1138ft 0kts
11-Apr-18 15:54 33.427746 -112.017737 92 1138ft 26kts
11-Apr-18 15:55 33.427745 -112.008361 91 1138ft 29kts
11-Apr-18 15:56 33.427907 -112.005355 33 1138ft 0kts
11-Apr-18 15:57 33.428858 -112.005648 259 1138ft 17kts
11-Apr-18 15:58 33.428507 -112.034616 267 1765ft 104kts
11-Apr-18 15:59 33.423400 -112.068775 250 3070ft 108kts
11-Apr-18 16:00 33.408434 -112.095262 170 4701ft 106kts
11-Apr-18 16:01 33.370815 -112.070776 150 4905ft 187kts
11-Apr-18 16:02 33.326375 -112.040003 150 5602ft 186kts
11-Apr-18 16:03 33.279475 -112.014521 160 6167ft 192kts
11-Apr-18 16:04 33.228858 -111.992466 160 6919ft 195kts
11-Apr-18 16:05 33.182497 -111.971796 159 7827ft 180kts
11-Apr-18 16:06 33.134438 -111.950075 161 9853ft 198kts
11-Apr-18 16:07 33.085045 -111.940146 180 12265ft 179kts
11-Apr-18 16:08 33.035004 -111.932411 179 14218ft 186kts
11-Apr-18 16:09 32.982936 -111.924037 179 16079ft 193kts
11-Apr-18 16:10 32.926621 -111.915142 178 17046ft 231kts
11-Apr-18 16:11 32.862282 -111.890937 147 17046ft 263kts
11-Apr-18 16:12 32.804258 -111.840953 150 17042ft 259kts
11-Apr-18 16:13 32.745621 -111.792346 150 17034ft 257kts
11-Apr-18 16:14 32.687359 -111.744215 150 17015ft 253kts
11-Apr-18 16:15 32.629974 -111.696939 150 16441ft 250kts
11-Apr-18 16:16 32.573507 -111.650467 150 15613ft 244kts
11-Apr-18 16:17 32.526317 -111.593756 130 14284ft 245kts
11-Apr-18 16:18 32.486256 -111.529333 131 12914ft 242kts
11-Apr-18 16:19 32.446558 -111.466392 131 11722ft 239kts
11-Apr-18 16:20 32.407752 -111.404945 131 11949ft 220kts
11-Apr-18 16:21 32.371975 -111.352197 134 11950ft 195kts
11-Apr-18 16:22 32.338411 -111.303128 135 11416ft 191kts
11-Apr-18 16:23 32.305178 -111.254635 135 10812ft 189kts
11-Apr-18 16:24 32.272060 -111.206561 135 10544ft 188kts
11-Apr-18 16:25 32.238035 -111.162052 135 10011ft 181kts
11-Apr-18 16:26 32.203571 -111.118953 135 8977ft 179kts
11-Apr-18 16:27 32.170775 -111.074965 135 7973ft 177kts
11-Apr-18 16:28 32.138955 -111.030945 135 6986ft 175kts
11-Apr-18 16:29 32.107744 -110.987870 134 5875ft 169kts
11-Apr-18 16:30 32.077273 -110.945946 135 4716ft 167kts
11-Apr-18 16:31 32.062189 -110.903963 47 4170ft 123kts
11-Apr-18 16:32 32.088401 -110.906751 305 3167ft 101kts
11-Apr-18 16:33 32.105359 -110.926888 306 2699ft 83kts
11-Apr-18 16:34 32.119261 -110.943068 301 2647ft 38kts
11-Apr-18 16:35 32.121318 -110.943841 42 2647ft 0kts
11-Apr-18 16:36 32.122695 -110.943716 20 2647ft 12kts

Navigation Log

Ident Type
Flight plan parsing failed, navigation log unavailable